Time;durP1;ratioP1;P1;durP2;ratioP2;P2;SDS_P1;SDS_P2;PMS_P1;PMS_P2;Temp;Humidity;BMP_temperature;BMP_pressure;BME280_temperature;BME280_humidity;BME280_pressure;Samples;Min_cycle;Max_cycle;Signal;HPM_P1;HPM_P2
2021/11/08 00:00:46;;;;;;;22.77;4.57;;;8.20;99.90;;;;;;5090488;28;20028;-48
2021/11/08 00:03:17;;;;;;;18.85;4.07;;;8.20;99.90;;;;;;5088553;28;20073;-48
2021/11/08 00:05:44;;;;;;;16.58;3.72;;;8.20;99.90;;;;;;5082112;28;20016;-48
2021/11/08 00:08:12;;;;;;;20.95;3.97;;;8.20;99.90;;;;;;5089744;28;20020;-48
2021/11/08 00:10:38;;;;;;;16.17;3.97;;;8.20;99.90;;;;;;5087815;28;20027;-48
2021/11/08 00:13:07;;;;;;;20.15;4.25;;;8.20;99.90;;;;;;5083070;28;20134;-48
2021/11/08 00:15:51;;;;;;;17.38;3.67;;;8.20;99.90;;;;;;5090275;28;20473;-48
2021/11/08 00:18:39;;;;;;;14.60;3.08;;;8.20;99.90;;;;;;5078706;28;20058;-48
2021/11/08 00:21:05;;;;;;;20.20;3.60;;;8.20;99.90;;;;;;5049840;28;20036;-48
2021/11/08 00:23:31;;;;;;;18.13;3.83;;;8.20;99.90;;;;;;5048587;28;20020;-49
2021/11/08 00:25:57;;;;;;;28.17;4.72;;;8.30;99.90;;;;;;5049881;28;20086;-48
2021/11/08 00:28:24;;;;;;;22.38;4.43;;;8.30;99.90;;;;;;5047260;28;20031;-48
2021/11/08 00:30:50;;;;;;;21.45;3.10;;;8.30;99.90;;;;;;5049561;28;20025;-48
2021/11/08 00:33:19;;;;;;;16.58;4.15;;;8.30;99.90;;;;;;5061301;28;20028;-49
2021/11/08 00:35:47;;;;;;;17.00;4.47;;;8.30;99.90;;;;;;5081356;28;20091;-48
2021/11/08 00:38:13;;;;;;;16.25;3.05;;;8.30;99.90;;;;;;5089588;28;20505;-49
2021/11/08 00:40:39;;;;;;;21.10;4.18;;;8.30;99.90;;;;;;5089516;28;20024;-48
2021/11/08 00:43:05;;;;;;;15.57;3.78;;;8.30;99.90;;;;;;5088266;28;20100;-48
2021/11/08 00:45:32;;;;;;;14.80;2.92;;;8.30;99.90;;;;;;5088336;28;20020;-48
2021/11/08 00:47:58;;;;;;;20.10;4.18;;;8.30;99.90;;;;;;5089086;28;20485;-49
2021/11/08 00:50:24;;;;;;;10.70;3.67;;;8.30;99.90;;;;;;5089447;28;20062;-47
2021/11/08 00:52:50;;;;;;;16.77;3.65;;;8.30;99.90;;;;;;5079122;28;20098;-50
2021/11/08 00:55:16;;;;;;;24.33;3.83;;;8.40;99.90;;;;;;5087915;28;20496;-50
2021/11/08 00:57:46;;;;;;;17.23;4.22;;;8.30;99.90;;;;;;5087562;28;20027;-48
2021/11/08 01:00:17;;;;;;;16.80;3.55;;;8.30;99.90;;;;;;5080166;28;20094;-48
2021/11/08 01:02:43;;;;;;;15.55;3.67;;;8.30;99.90;;;;;;5089503;28;20527;-48
2021/11/08 01:05:11;;;;;;;18.27;4.22;;;8.30;99.90;;;;;;5088057;28;20197;-48
2021/11/08 01:07:37;;;;;;;14.63;3.50;;;8.30;99.90;;;;;;5078282;28;20013;-48
2021/11/08 01:10:11;;;;;;;19.45;4.18;;;8.30;99.90;;;;;;5089467;28;20030;-49
2021/11/08 01:12:37;;;;;;;30.13;3.47;;;8.30;99.90;;;;;;5075248;28;20020;-49
2021/11/08 01:15:05;;;;;;;21.77;3.75;;;8.40;99.90;;;;;;5081774;28;20024;-48
2021/11/08 01:17:31;;;;;;;21.13;4.57;;;8.40;99.90;;;;;;5077121;28;20081;-47
2021/11/08 01:19:57;;;;;;;16.52;3.38;;;8.40;99.90;;;;;;5080671;28;20028;-48
2021/11/08 01:22:22;;;;;;;20.55;3.50;;;8.30;99.90;;;;;;5088963;28;20023;-49
2021/11/08 01:24:53;;;;;;;20.75;3.70;;;8.30;99.90;;;;;;5088937;28;20024;-48
2021/11/08 01:27:33;;;;;;;22.35;3.42;;;8.30;99.90;;;;;;5084037;28;20024;-48
2021/11/08 01:30:00;;;;;;;;;;;8.30;99.90;;;;;;5049094;28;20029;-48
2021/11/08 01:32:26;;;;;;;18.35;3.80;;;8.30;99.90;;;;;;5063849;28;19905;-51
2021/11/08 01:34:51;;;;;;;13.55;3.22;;;8.20;99.90;;;;;;5048587;28;20052;-48
2021/11/08 01:37:19;;;;;;;22.42;3.47;;;8.30;99.90;;;;;;5047952;28;20087;-48
2021/11/08 01:39:46;;;;;;;16.52;3.40;;;8.20;99.90;;;;;;5047964;28;20028;-50
2021/11/08 01:42:13;;;;;;;24.75;3.90;;;8.30;99.90;;;;;;5048550;28;20028;-48
2021/11/08 01:44:39;;;;;;;14.93;2.72;;;8.30;99.90;;;;;;5047406;28;20099;-48
2021/11/08 01:47:06;;;;;;;20.65;4.03;;;8.30;99.90;;;;;;5048443;28;20017;-48
2021/11/08 01:49:32;;;;;;;19.45;4.00;;;8.30;99.90;;;;;;5048838;28;20236;-48
2021/11/08 01:51:59;;;;;;;14.80;3.65;;;8.30;99.90;;;;;;5048370;28;20094;-48
2021/11/08 01:54:25;;;;;;;13.63;3.15;;;8.30;99.90;;;;;;5048302;28;20070;-48
2021/11/08 01:56:53;;;;;;;15.63;3.20;;;8.30;99.90;;;;;;5053468;28;20096;-48
2021/11/08 01:59:20;;;;;;;20.23;3.78;;;8.30;99.90;;;;;;5079896;28;20092;-48
2021/11/08 02:01:46;;;;;;;15.88;2.63;;;8.40;99.90;;;;;;5088227;28;20470;-51
2021/11/08 02:04:12;;;;;;;20.73;4.07;;;8.30;99.90;;;;;;5088621;28;20086;-50
2021/11/08 02:06:39;;;;;;;9.80;3.13;;;8.30;99.90;;;;;;5087170;28;20025;-48
2021/11/08 02:09:06;;;;;;;15.88;3.13;;;8.30;99.90;;;;;;5086697;28;20016;-50
2021/11/08 02:11:35;;;;;;;15.73;2.70;;;8.40;99.90;;;;;;5088103;28;20028;-50
2021/11/08 02:14:01;;;;;;;20.20;3.72;;;8.40;99.90;;;;;;5088409;28;20024;-48
2021/11/08 02:16:27;;;;;;;15.85;3.35;;;8.40;99.90;;;;;;5080994;28;20486;-48
2021/11/08 02:18:53;;;;;;;18.73;3.63;;;8.30;99.90;;;;;;5078360;28;20035;-48
2021/11/08 02:21:19;;;;;;;15.50;3.38;;;8.30;99.90;;;;;;5088278;28;20024;-48
2021/11/08 02:23:48;;;;;;;14.88;4.53;;;8.30;99.90;;;;;;5086962;28;20032;-48
2021/11/08 02:26:16;;;;;;;20.77;4.28;;;8.30;99.90;;;;;;5088618;28;20107;-48
2021/11/08 02:28:44;;;;;;;13.95;3.70;;;8.20;99.90;;;;;;5087773;28;20012;-48
2021/11/08 02:31:14;;;;;;;20.20;3.75;;;8.20;99.90;;;;;;5088447;28;20484;-51
2021/11/08 02:33:40;;;;;;;17.17;3.83;;;8.10;99.90;;;;;;5072888;28;20049;-47
2021/11/08 02:36:07;;;;;;;17.40;3.13;;;8.10;99.90;;;;;;5079948;28;20067;-48
2021/11/08 02:38:36;;;;;;;19.08;3.33;;;8.20;99.90;;;;;;5088171;28;20448;-48
2021/11/08 02:41:02;;;;;;;13.85;3.10;;;8.20;99.90;;;;;;5088438;28;20028;-50
2021/11/08 02:43:28;;;;;;;13.55;3.28;;;8.10;99.90;;;;;;5074202;28;20086;-49
2021/11/08 02:48:48;;;;;;;20.73;3.47;;;8.10;99.90;;;;;;5081942;28;20036;-50
2021/11/08 02:51:20;;;;;;;10.70;2.70;;;8.00;99.90;;;;;;5088011;28;20020;-47
2021/11/08 02:53:48;;;;;;;15.27;3.50;;;8.00;99.90;;;;;;5091502;28;20021;-48
2021/11/08 02:56:15;;;;;;;16.10;2.70;;;8.10;99.90;;;;;;5091514;28;20016;-48
2021/11/08 02:58:42;;;;;;;22.40;3.80;;;8.10;99.90;;;;;;5089922;28;20030;-47
2021/11/08 03:01:12;;;;;;;12.88;3.30;;;8.10;99.90;;;;;;5086463;28;20020;-48
2021/11/08 03:03:44;;;;;;;18.73;4.03;;;8.10;99.90;;;;;;5071834;28;20027;-49
2021/11/08 03:08:38;;;;;;;20.65;4.22;;;8.10;99.90;;;;;;5070778;28;20078;-48
2021/11/08 03:11:05;;;;;;;17.88;4.88;;;8.20;99.90;;;;;;5071277;28;20032;-48
2021/11/08 03:13:34;;;;;;;20.48;3.53;;;8.20;99.90;;;;;;5070772;28;20056;-48
2021/11/08 03:16:18;;;;;;;22.90;3.00;;;8.20;99.90;;;;;;5071292;28;20033;-48
2021/11/08 03:18:45;;;;;;;8.48;2.72;;;8.20;99.90;;;;;;5077121;28;20549;-49
2021/11/08 03:21:17;;;;;;;14.23;3.65;;;8.20;99.90;;;;;;5091092;28;20051;-48
2021/11/08 03:23:46;;;;;;;13.20;3.28;;;8.20;99.90;;;;;;5091034;28;20023;-48
2021/11/08 03:26:48;;;;;;;12.55;3.72;;;8.20;99.90;;;;;;5086467;28;20020;-49
2021/11/08 03:29:03;;;;;;;14.10;3.63;;;8.20;99.90;;;;;;5076301;28;20115;-48
2021/11/08 03:31:30;;;;;;;18.90;3.70;;;8.20;99.90;;;;;;5070788;28;20112;-48
2021/11/08 03:33:57;;;;;;;23.13;3.70;;;8.20;99.90;;;;;;5070597;28;20048;-49
2021/11/08 03:36:23;;;;;;;14.43;3.10;;;8.20;99.90;;;;;;5070628;28;20078;-48
2021/11/08 03:38:48;;;;;;;17.63;3.70;;;8.20;99.90;;;;;;5070337;28;20036;-48
2021/11/08 03:41:14;;;;;;;22.00;3.47;;;8.20;99.90;;;;;;5070687;28;20207;-48
2021/11/08 03:43:40;;;;;;;15.38;4.05;;;8.20;99.90;;;;;;5070668;28;20040;-49
2021/11/08 03:46:07;;;;;;;16.08;3.28;;;8.20;99.90;;;;;;5070703;28;20463;-49
2021/11/08 03:48:33;;;;;;;18.25;3.38;;;8.20;99.90;;;;;;5068255;28;20093;-48
2021/11/08 03:51:00;;;;;;;16.42;3.45;;;8.20;99.90;;;;;;5070546;28;20405;-48
2021/11/08 03:53:25;;;;;;;19.60;4.57;;;8.20;99.90;;;;;;5070269;28;20107;-48
2021/11/08 03:55:53;;;;;;;27.48;3.95;;;8.20;99.90;;;;;;5070421;28;20182;-48
2021/11/08 03:58:19;;;;;;;17.20;3.78;;;8.20;99.90;;;;;;5076443;28;20023;-50
2021/11/08 04:00:46;;;;;;;20.63;3.78;;;8.10;99.90;;;;;;5071873;28;20494;-48
2021/11/08 04:03:13;;;;;;;20.92;4.13;;;8.10;99.90;;;;;;5070152;28;20066;-48
2021/11/08 04:05:41;;;;;;;19.33;3.97;;;8.10;99.90;;;;;;5069993;28;20024;-50
2021/11/08 04:08:12;;;;;;;23.83;4.20;;;8.10;99.90;;;;;;5069572;28;20090;-47
2021/11/08 04:10:41;;;;;;;24.45;3.83;;;8.10;99.90;;;;;;5068750;28;20483;-50
2021/11/08 04:13:07;;;;;;;16.58;3.22;;;8.20;99.90;;;;;;5070367;28;20032;-48
2021/11/08 04:15:37;;;;;;;17.40;4.13;;;8.10;99.90;;;;;;5070110;28;20390;-49
2021/11/08 04:18:06;;;;;;;15.43;3.92;;;8.20;99.90;;;;;;5075414;28;20536;-48
2021/11/08 04:20:33;;;;;;;13.98;3.30;;;8.20;99.90;;;;;;5085393;28;20028;-48
2021/11/08 04:22:58;;;;;;;12.68;3.60;;;8.10;99.90;;;;;;5089861;28;20023;-48
2021/11/08 04:25:25;;;;;;;18.65;2.72;;;8.20;99.90;;;;;;5090073;28;20056;-48
2021/11/08 04:27:51;;;;;;;18.58;3.33;;;8.10;99.90;;;;;;5089423;28;20054;-48
2021/11/08 04:30:18;;;;;;;27.67;4.00;;;8.10;99.90;;;;;;5089943;28;20020;-48
2021/11/08 04:33:03;;;;;;;16.13;3.30;;;8.10;99.90;;;;;;5088077;28;20024;-48
2021/11/08 04:38:11;;;;;;;13.50;3.42;;;8.10;99.90;;;;;;5071691;28;20090;-49
2021/11/08 04:40:51;;;;;;;18.95;4.05;;;8.10;99.90;;;;;;5087028;28;20036;-48
2021/11/08 04:43:36;;;;;;;16.30;3.75;;;8.10;99.90;;;;;;5089722;28;20023;-50
2021/11/08 04:48:56;;;;;;;21.92;4.63;;;8.10;99.90;;;;;;5088638;28;20449;-47
2021/11/08 04:51:36;;;;;;;18.23;3.40;;;8.10;99.90;;;;;;5088044;28;20024;-48
2021/11/08 04:57:10;;;;;;;19.33;4.00;;;8.00;99.90;;;;;;5086349;28;20443;-49
2021/11/08 05:24:18;;;;;;;19.27;4.22;;;7.70;99.90;;;;;;5089414;28;20028;-48
2021/11/08 05:29:57;;;;;;;11.77;3.50;;;7.70;99.90;;;;;;5080947;28;20035;-49
2021/11/08 05:32:25;;;;;;;19.75;3.28;;;7.60;99.90;;;;;;5076937;28;20032;-51
2021/11/08 05:34:51;;;;;;;20.08;3.60;;;7.60;99.90;;;;;;5078771;28;20024;-50
2021/11/08 05:37:17;;;;;;;21.75;3.25;;;7.60;99.90;;;;;;5088140;28;20024;-48
2021/11/08 05:39:50;;;;;;;13.05;2.72;;;7.60;99.90;;;;;;5080207;28;20390;-47
2021/11/08 05:42:16;;;;;;;22.77;3.90;;;7.60;99.90;;;;;;5048619;28;20051;-47
2021/11/08 05:44:42;;;;;;;22.17;3.85;;;7.60;99.90;;;;;;5047191;28;20028;-47
2021/11/08 05:47:08;;;;;;;16.83;3.13;;;7.50;99.90;;;;;;5046435;28;20017;-48
2021/11/08 05:49:34;;;;;;;23.58;3.53;;;7.60;99.90;;;;;;5047096;28;20021;-48
2021/11/08 05:52:00;;;;;;;12.35;3.78;;;7.50;99.90;;;;;;5048447;28;20051;-48
2021/11/08 05:54:25;;;;;;;22.27;4.20;;;7.50;99.90;;;;;;5048514;28;20033;-48
2021/11/08 06:51:50;;;;;;;14.85;3.22;;;7.20;99.90;;;;;;5056315;28;20032;-49
2021/11/08 06:54:17;;;;;;;24.83;4.10;;;7.20;99.90;;;;;;5091403;28;20044;-49
2021/11/08 06:56:50;;;;;;;14.32;3.42;;;7.20;99.90;;;;;;5073422;28;20023;-50
2021/11/08 06:59:17;;;;;;;15.95;5.05;;;7.20;99.90;;;;;;5074208;28;20030;-51
2021/11/08 07:01:44;;;;;;;17.70;3.58;;;7.20;99.90;;;;;;5081473;28;20477;-51
2021/11/08 07:04:10;;;;;;;23.98;4.28;;;7.20;99.90;;;;;;5091043;28;20030;-51
2021/11/08 07:06:36;;;;;;;19.88;3.92;;;7.20;99.90;;;;;;5080411;28;20025;-50
2021/11/08 07:09:02;;;;;;;20.02;3.55;;;7.30;99.90;;;;;;5066630;28;20020;-48
2021/11/08 07:11:28;;;;;;;22.48;5.57;;;7.30;99.90;;;;;;5058879;28;20021;-49
2021/11/08 07:13:53;;;;;;;15.93;4.57;;;7.30;99.90;;;;;;5060714;28;20473;-49
2021/11/08 07:16:19;;;;;;;15.48;3.85;;;7.20;99.90;;;;;;5069848;28;20055;-49
2021/11/08 07:18:44;;;;;;;18.30;4.13;;;7.30;99.90;;;;;;5062996;28;20047;-48
2021/11/08 07:21:10;;;;;;;22.33;4.13;;;7.30;99.90;;;;;;5061730;28;20036;-50
2021/11/08 07:23:35;;;;;;;24.92;5.22;;;7.30;99.90;;;;;;5077327;28;20082;-49
2021/11/08 07:26:01;;;;;;;18.33;4.32;;;7.30;99.90;;;;;;5087756;28;20028;-49
2021/11/08 07:28:26;;;;;;;22.13;3.80;;;7.30;99.90;;;;;;5076174;28;20407;-48
2021/11/08 07:30:52;;;;;;;29.48;4.72;;;7.40;99.90;;;;;;5081664;28;20028;-48
2021/11/08 07:33:17;;;;;;;20.08;4.07;;;7.40;99.90;;;;;;5058257;28;20103;-50
2021/11/08 07:35:44;;;;;;;14.73;3.97;;;7.40;99.90;;;;;;5075952;28;20027;-51
2021/11/08 07:38:10;;;;;;;27.83;4.95;;;7.40;99.90;;;;;;5067379;28;20070;-50
2021/11/08 07:40:36;;;;;;;16.20;4.00;;;7.40;99.90;;;;;;5058773;28;20115;-48
2021/11/08 07:43:02;;;;;;;14.35;3.53;;;7.50;99.90;;;;;;5070617;28;20070;-51
2021/11/08 07:45:27;;;;;;;22.60;3.30;;;7.50;99.90;;;;;;5080506;28;20417;-49
2021/11/08 07:47:54;;;;;;;15.23;4.00;;;7.50;99.90;;;;;;5083400;28;20074;-48
2021/11/08 07:50:20;;;;;;;19.63;3.70;;;7.50;99.90;;;;;;5067262;28;20107;-48
2021/11/08 07:52:46;;;;;;;18.17;3.78;;;7.60;99.90;;;;;;5064928;28;20025;-48
2021/11/08 07:55:11;;;;;;;18.17;4.78;;;7.60;99.90;;;;;;5053192;28;20051;-49
2021/11/08 07:57:39;;;;;;;15.25;3.10;;;7.60;99.90;;;;;;5069147;28;20037;-48
2021/11/08 08:00:06;;;;;;;18.95;3.92;;;7.60;99.90;;;;;;5053766;28;20025;-48
2021/11/08 08:02:32;;;;;;;18.63;3.88;;;7.70;99.90;;;;;;5050525;28;20406;-48
2021/11/08 08:04:58;;;;;;;15.00;3.55;;;7.70;99.90;;;;;;5077539;28;20498;-49
2021/11/08 08:07:24;;;;;;;17.70;3.70;;;7.70;99.90;;;;;;5077230;28;20116;-48
2021/11/08 08:09:49;;;;;;;22.67;4.30;;;7.80;99.90;;;;;;5074998;28;20039;-51
2021/11/08 08:12:15;;;;;;;18.17;5.13;;;7.90;99.90;;;;;;5071483;28;20103;-51
2021/11/08 08:14:40;;;;;;;19.67;4.32;;;7.90;99.90;;;;;;5080920;28;20195;-48
2021/11/08 08:17:06;;;;;;;29.42;4.68;;;8.00;99.90;;;;;;5048500;28;20045;-49
2021/11/08 08:19:31;;;;;;;15.68;3.83;;;8.10;99.90;;;;;;5066530;28;20465;-48
2021/11/08 08:21:57;;;;;;;15.27;4.07;;;8.00;99.90;;;;;;5065883;28;20502;-49
2021/11/08 08:24:23;;;;;;;19.17;3.60;;;8.10;99.90;;;;;;5050627;28;20032;-48
2021/11/08 08:26:49;;;;;;;21.33;4.97;;;8.10;99.90;;;;;;5076438;28;20414;-48
2021/11/08 08:29:15;;;;;;;19.73;4.65;;;8.20;99.90;;;;;;5066434;28;20409;-50
2021/11/08 08:31:44;;;;;;;18.23;3.45;;;8.20;99.90;;;;;;5079107;28;20373;-48
2021/11/08 08:34:10;;;;;;;18.48;3.35;;;8.30;99.90;;;;;;5068979;28;20024;-48
2021/11/08 08:36:37;;;;;;;20.63;4.47;;;8.30;99.90;;;;;;5064478;28;20081;-48
2021/11/08 08:39:05;;;;;;;23.13;4.22;;;8.30;99.90;;;;;;5080220;28;20496;-48
2021/11/08 08:41:30;;;;;;;18.45;4.53;;;8.40;99.90;;;;;;5089291;28;20040;-49
2021/11/08 08:43:56;;;;;;;21.85;4.97;;;8.40;99.90;;;;;;5054889;28;20031;-48
2021/11/08 08:46:21;;;;;;;13.55;3.65;;;8.50;99.90;;;;;;5074556;28;20446;-48
2021/11/08 08:48:49;;;;;;;15.23;3.80;;;8.50;99.90;;;;;;5073720;28;20069;-49
2021/11/08 08:51:14;;;;;;;19.95;3.72;;;8.60;99.90;;;;;;5054622;28;20677;-49
2021/11/08 08:53:40;;;;;;;18.02;3.97;;;8.70;99.90;;;;;;5050588;28;20029;-48
2021/11/08 08:56:06;;;;;;;22.42;4.45;;;8.80;99.90;;;;;;5077014;28;20022;-49
2021/11/08 08:58:31;;;;;;;10.85;3.45;;;8.90;99.90;;;;;;5060013;28;20421;-50
2021/11/08 09:00:58;;;;;;;15.63;3.95;;;9.20;99.90;;;;;;5065128;28;20111;-51
2021/11/08 09:03:24;;;;;;;15.93;3.20;;;9.30;99.90;;;;;;5056841;28;20027;-48
2021/11/08 09:05:50;;;;;;;21.70;4.18;;;9.30;99.90;;;;;;5056701;28;20029;-48
2021/11/08 09:08:17;;;;;;;16.55;3.95;;;9.30;99.90;;;;;;5054638;28;20111;-50
2021/11/08 09:10:43;;;;;;;14.55;3.85;;;9.20;99.90;;;;;;5061623;28;20040;-51
2021/11/08 09:13:09;;;;;;;18.08;4.25;;;9.20;99.90;;;;;;5057044;28;20029;-48
2021/11/08 09:15:38;;;;;;;14.15;3.30;;;9.20;99.90;;;;;;5057389;28;20393;-51
2021/11/08 09:18:05;;;;;;;12.98;4.07;;;9.30;99.90;;;;;;5058160;28;20052;-48
2021/11/08 09:20:32;;;;;;;14.38;4.57;;;9.30;99.90;;;;;;5062669;28;20032;-48
2021/11/08 09:22:59;;;;;;;14.80;3.25;;;9.40;99.90;;;;;;5060364;28;20108;-48
2021/11/08 09:25:27;;;;;;;18.20;4.28;;;9.40;99.90;;;;;;5059607;28;20056;-48
2021/11/08 09:27:55;;;;;;;20.83;3.13;;;9.50;99.90;;;;;;5055297;28;20113;-48
2021/11/08 09:30:24;;;;;;;15.65;3.85;;;9.70;99.90;;;;;;5060356;28;20037;-50
2021/11/08 09:32:50;;;;;;;18.05;4.05;;;9.80;99.90;;;;;;5060422;28;20037;-51
2021/11/08 09:35:17;;;;;;;14.85;3.50;;;10.00;99.90;;;;;;5057662;28;20017;-48
2021/11/08 09:37:44;;;;;;;13.48;4.28;;;10.40;99.90;;;;;;5055570;28;20036;-49
2021/11/08 09:40:13;;;;;;;12.98;3.28;;;10.80;99.90;;;;;;5056354;28;20544;-50
2021/11/08 09:42:39;;;;;;;15.55;2.92;;;11.10;99.90;;;;;;5058026;28;20166;-48
2021/11/08 09:45:06;;;;;;;14.40;3.15;;;11.40;99.90;;;;;;5057623;28;20687;-48
2021/11/08 09:47:33;;;;;;;17.38;3.92;;;11.80;99.90;;;;;;5053620;28;20025;-51
2021/11/08 09:50:02;;;;;;;17.23;3.85;;;12.00;99.90;;;;;;5057428;28;20028;-50
2021/11/08 09:52:30;;;;;;;11.75;3.00;;;12.30;99.90;;;;;;5048410;28;20079;-48
2021/11/08 09:54:57;;;;;;;13.57;2.85;;;13.60;99.90;;;;;;5078179;28;20409;-48
2021/11/08 09:57:24;;;;;;;15.15;3.85;;;14.50;99.90;;;;;;5084597;28;20104;-48
2021/11/08 09:59:51;;;;;;;9.98;3.30;;;15.60;99.30;;;;;;5068496;28;20059;-49
2021/11/08 10:02:17;;;;;;;13.55;3.03;;;16.70;95.70;;;;;;5085608;28;20016;-50
2021/11/08 10:04:43;;;;;;;15.77;3.30;;;17.40;93.40;;;;;;5069051;28;20028;-51
2021/11/08 10:07:09;;;;;;;12.25;3.13;;;18.00;90.10;;;;;;5056137;28;20204;-51
2021/11/08 10:09:36;;;;;;;15.90;3.70;;;18.30;87.30;;;;;;5057616;28;20025;-51
2021/11/08 10:12:06;;;;;;;11.25;3.35;;;18.70;83.80;;;;;;5062301;28;20485;-49
2021/11/08 10:14:32;;;;;;;13.52;3.42;;;19.00;81.40;;;;;;5060656;28;20039;-51
2021/11/08 10:17:01;;;;;;;17.17;3.92;;;19.10;81.80;;;;;;5062156;28;20032;-50
2021/11/08 10:19:27;;;;;;;9.75;3.00;;;19.80;77.70;;;;;;5063266;28;20024;-51
2021/11/08 10:21:55;;;;;;;9.70;3.30;;;20.20;74.60;;;;;;5063251;28;20075;-51
2021/11/08 10:24:25;;;;;;;10.30;3.72;;;20.50;74.40;;;;;;5060016;28;20021;-51
2021/11/08 10:26:53;;;;;;;10.00;3.00;;;19.40;74.60;;;;;;5064029;28;20036;-51
2021/11/08 10:29:21;;;;;;;14.50;3.45;;;18.90;75.90;;;;;;5060278;28;20040;-48
2021/11/08 10:31:51;;;;;;;10.77;3.47;;;17.80;80.50;;;;;;5063406;28;20024;-50
2021/11/08 10:34:17;;;;;;;15.45;4.35;;;17.60;81.00;;;;;;5061434;28;20033;-48
2021/11/08 10:36:45;;;;;;;12.82;3.30;;;17.60;80.60;;;;;;5062076;28;20529;-51
2021/11/08 10:39:12;;;;;;;15.40;3.90;;;18.10;80.20;;;;;;5058509;28;20044;-50
2021/11/08 10:41:44;;;;;;;11.38;3.10;;;18.00;79.30;;;;;;5064617;28;20031;-48
2021/11/08 10:44:18;;;;;;;10.02;4.47;;;18.30;79.10;;;;;;5059808;28;20028;-50
2021/11/08 10:46:49;;;;;;;10.82;3.55;;;18.80;79.80;;;;;;5055533;28;20021;-50
2021/11/08 10:49:18;;;;;;;;;;;18.70;76.60;;;;;;5062490;28;20021;-48
2021/11/08 10:51:47;;;;;;;14.38;3.95;;;18.30;76.50;;;;;;5062042;28;20009;-50
2021/11/08 10:54:22;;;;;;;11.20;3.25;;;18.20;76.80;;;;;;5059251;28;20175;-48
2021/11/08 10:56:56;;;;;;;15.43;3.30;;;17.10;79.50;;;;;;5059678;28;20135;-49
2021/11/08 10:59:26;;;;;;;16.38;3.08;;;16.40;82.90;;;;;;5058267;28;20032;-51
2021/11/08 11:01:54;;;;;;;11.98;3.30;;;15.70;85.20;;;;;;5060663;28;20033;-48
2021/11/08 11:04:40;;;;;;;12.45;3.08;;;15.40;88.00;;;;;;5068692;28;20031;-50
2021/11/08 11:07:10;;;;;;;17.50;4.18;;;15.30;89.10;;;;;;5050526;28;20081;-49
2021/11/08 11:09:37;;;;;;;13.05;3.72;;;15.00;89.10;;;;;;5062440;28;20130;-48
2021/11/08 11:12:11;;;;;;;9.93;3.20;;;14.60;91.30;;;;;;5066911;28;20033;-48
2021/11/08 11:14:57;;;;;;;14.32;4.05;;;14.40;92.40;;;;;;5049328;28;20025;-48
2021/11/08 11:17:29;;;;;;;12.95;2.92;;;14.20;93.10;;;;;;5050529;28;20560;-50
2021/11/08 11:20:19;;;;;;;14.65;3.50;;;14.80;92.60;;;;;;5062764;28;20031;-48
2021/11/08 11:23:03;;;;;;;13.38;4.00;;;14.40;92.50;;;;;;5062892;28;20013;-48
2021/11/08 11:25:53;;;;;;;11.73;3.38;;;13.80;94.20;;;;;;5058573;28;20116;-48
2021/11/08 11:28:37;;;;;;;8.73;2.58;;;13.70;95.90;;;;;;5056708;28;20118;-48
2021/11/08 11:31:21;;;;;;;13.30;3.42;;;13.40;96.60;;;;;;5057917;28;20029;-50
2021/11/08 11:33:49;;;;;;;14.73;4.07;;;13.20;97.10;;;;;;5061120;28;20025;-47
2021/11/08 11:36:17;;;;;;;13.23;3.20;;;13.00;98.70;;;;;;5064010;28;20063;-50
2021/11/08 11:38:48;;;;;;;9.80;2.60;;;12.70;99.90;;;;;;5059490;28;20522;-47
2021/11/08 11:41:27;;;;;;;9.85;2.85;;;12.30;99.90;;;;;;5067033;28;20033;-50
2021/11/08 11:44:04;;;;;;;12.68;3.53;;;12.20;99.90;;;;;;5083963;28;20046;-47
2021/11/08 11:46:35;;;;;;;21.38;3.47;;;11.90;99.90;;;;;;5069655;28;20096;-48
2021/11/08 11:49:02;;;;;;;;;;;11.80;99.90;;;;;;5067425;28;20044;-47
2021/11/08 11:51:33;;;;;;;11.23;4.07;;;11.70;99.90;;;;;;5081249;28;19998;-49
2021/11/08 11:54:00;;;;;;;15.50;3.20;;;11.50;99.90;;;;;;5066741;28;20502;-48
2021/11/08 11:56:28;;;;;;;20.17;3.55;;;11.60;99.90;;;;;;5066267;28;20036;-49
2021/11/08 11:58:54;;;;;;;19.88;3.33;;;11.70;99.90;;;;;;5071178;28;20255;-48
2021/11/08 12:01:22;;;;;;;17.95;4.18;;;11.60;99.90;;;;;;5057905;28;20123;-50
2021/11/08 12:03:49;;;;;;;20.48;4.05;;;11.60;99.90;;;;;;5050278;28;20035;-47
2021/11/08 12:06:24;;;;;;;13.13;3.40;;;11.60;99.90;;;;;;5061774;28;20466;-47
2021/11/08 12:08:54;;;;;;;17.20;2.95;;;11.70;99.90;;;;;;5068922;28;20623;-49
2021/11/08 12:11:36;;;;;;;12.70;2.97;;;11.70;99.90;;;;;;5069664;28;20107;-49
2021/11/08 12:14:09;;;;;;;20.02;5.70;;;11.70;99.90;;;;;;5069070;28;20185;-49
2021/11/08 12:16:34;;;;;;;12.65;3.40;;;11.70;99.90;;;;;;5064648;28;20033;-50
2021/11/08 12:19:02;;;;;;;15.20;4.28;;;11.60;99.90;;;;;;5071996;28;20042;-47
2021/11/08 12:21:33;;;;;;;19.25;3.30;;;11.50;99.90;;;;;;5088205;28;20028;-48
2021/11/08 12:23:59;;;;;;;;;;;11.40;99.90;;;;;;5070368;28;20378;-49
2021/11/08 12:26:31;;;;;;;15.27;3.35;;;11.40;99.90;;;;;;5054611;28;20316;-49
2021/11/08 12:29:08;;;;;;;14.85;3.05;;;11.40;99.90;;;;;;5060222;28;20348;-48
2021/11/08 12:31:35;;;;;;;14.98;3.65;;;11.40;99.90;;;;;;5060452;28;20141;-49
2021/11/08 12:34:07;;;;;;;17.00;3.25;;;11.40;99.90;;;;;;5058606;28;20159;-49
2021/11/08 12:36:33;;;;;;;13.48;3.65;;;11.20;99.90;;;;;;5063243;28;20048;-48
2021/11/08 12:39:09;;;;;;;15.15;4.03;;;11.20;99.90;;;;;;5068347;28;20035;-51
2021/11/08 12:41:46;;;;;;;22.10;4.25;;;11.20;99.90;;;;;;5064428;28;20028;-49
2021/11/08 12:44:13;;;;;;;18.13;3.97;;;11.10;99.90;;;;;;5051772;28;20021;-48
2021/11/08 12:46:51;;;;;;;10.73;2.90;;;11.00;99.90;;;;;;5074323;28;20024;-50
2021/11/08 12:49:51;;;;;;;15.48;4.05;;;11.10;99.90;;;;;;5068544;28;20070;-54
2021/11/08 12:52:27;;;;;;;14.55;3.58;;;11.20;99.90;;;;;;5051348;28;20041;-48
2021/11/08 12:55:05;;;;;;;11.48;2.90;;;11.20;99.90;;;;;;5057471;28;20135;-51
2021/11/08 12:57:33;;;;;;;12.35;2.75;;;11.20;99.90;;;;;;5062057;28;20032;-49
2021/11/08 13:00:18;;;;;;;14.77;3.55;;;11.20;99.90;;;;;;5069160;28;20017;-49
2021/11/08 13:02:57;;;;;;;14.15;3.47;;;11.20;99.90;;;;;;5084596;28;20020;-51
2021/11/08 13:05:32;;;;;;;17.85;3.45;;;11.20;99.90;;;;;;5075251;28;20089;-49
2021/11/08 13:07:59;;;;;;;13.85;4.10;;;11.20;99.90;;;;;;5066048;28;20072;-48
2021/11/08 13:10:27;;;;;;;15.27;3.03;;;11.20;99.90;;;;;;5048840;28;20482;-48
2021/11/08 13:12:55;;;;;;;10.93;2.88;;;11.20;99.90;;;;;;5066313;28;20032;-50
2021/11/08 13:15:23;;;;;;;14.52;3.60;;;11.30;99.90;;;;;;5060751;28;20112;-48
2021/11/08 13:17:52;;;;;;;14.65;3.15;;;11.40;99.90;;;;;;5051508;28;20183;-49
2021/11/08 13:20:21;;;;;;;15.25;3.60;;;11.40;99.90;;;;;;5081905;28;20442;-51
2021/11/08 13:22:50;;;;;;;12.25;3.00;;;11.40;99.90;;;;;;5065012;28;20442;-50
2021/11/08 13:25:22;;;;;;;7.07;2.83;;;11.30;99.90;;;;;;5067986;28;20056;-49
2021/11/08 13:28:09;;;;;;;26.42;4.15;;;11.30;99.90;;;;;;5049207;28;20387;-47
2021/11/08 13:30:39;;;;;;;16.13;3.90;;;11.30;99.90;;;;;;5067531;28;20489;-48
2021/11/08 13:33:07;;;;;;;18.73;4.10;;;11.40;99.90;;;;;;5068314;28;20058;-48
2021/11/08 13:35:34;;;;;;;10.70;3.20;;;11.40;99.90;;;;;;5067357;28;20101;-50
2021/11/08 13:38:25;;;;;;;14.35;3.10;;;11.40;99.90;;;;;;5061685;28;20047;-49
2021/11/08 13:40:56;;;;;;;14.07;3.17;;;11.50;99.90;;;;;;5072639;28;20032;-50
2021/11/08 13:43:25;;;;;;;15.38;3.80;;;11.50;99.90;;;;;;5068804;28;20053;-48
2021/11/08 13:45:57;;;;;;;16.40;3.78;;;11.50;99.90;;;;;;5062730;28;20123;-48
2021/11/08 13:48:26;;;;;;;7.85;2.97;;;11.60;99.90;;;;;;5065114;28;20025;-48
2021/11/08 13:50:53;;;;;;;16.17;3.80;;;11.70;99.90;;;;;;5047981;28;20024;-48
2021/11/08 13:53:25;;;;;;;14.00;3.35;;;11.60;99.90;;;;;;5048280;28;20107;-48
2021/11/08 13:55:54;;;;;;;11.57;3.10;;;11.70;99.90;;;;;;5057180;28;20031;-48
2021/11/08 13:58:20;;;;;;;21.30;3.88;;;11.70;99.90;;;;;;5067640;28;20029;-50
2021/11/08 14:00:45;;;;;;;12.27;3.47;;;11.70;99.90;;;;;;5075188;28;20065;-48
2021/11/08 14:03:16;;;;;;;16.98;3.38;;;11.70;99.90;;;;;;5077212;28;20460;-49
2021/11/08 14:05:52;;;;;;;16.67;3.92;;;11.70;99.90;;;;;;5075455;28;20127;-48
2021/11/08 14:08:23;;;;;;;13.10;3.75;;;11.60;99.90;;;;;;5085779;28;20094;-48
2021/11/08 14:10:57;;;;;;;12.35;4.18;;;11.60;99.90;;;;;;5080221;28;20047;-48
2021/11/08 14:13:37;;;;;;;15.05;4.18;;;11.60;99.90;;;;;;5089597;28;20032;-48
2021/11/08 14:16:08;;;;;;;15.55;3.92;;;11.60;99.90;;;;;;5089787;28;20149;-49
2021/11/08 14:18:35;;;;;;;17.10;3.70;;;11.50;99.90;;;;;;5088957;28;20024;-48
2021/11/08 14:21:08;;;;;;;21.70;3.92;;;11.50;99.90;;;;;;5079875;28;20118;-48
2021/11/08 14:23:35;;;;;;;21.48;3.65;;;11.40;99.90;;;;;;5084857;28;20478;-48
2021/11/08 14:26:20;;;;;;;17.95;4.07;;;11.40;99.90;;;;;;5088033;28;20073;-50
2021/11/08 14:28:47;;;;;;;15.77;3.40;;;11.30;99.90;;;;;;5087406;28;20035;-49
2021/11/08 14:31:31;;;;;;;14.38;3.33;;;11.20;99.90;;;;;;5088794;28;20115;-50